Terminal Aerodrome Forecast
Issued by NWS

Home | Current Version | Previous Version | Graphics & Text | Print | Product List | Glossary On
Versions: 1 2 3 4 5 6 7 8 9 10 11 12 13 14 15 16 17 18 19 20 21 22 23 24 25
000
FTUS43 KGRB 201100
TAFCWA
TAF
KCWA 201140Z 2012/2112 VRB03KT 6SM BR SCT003 BKN007
      TEMPO 2012/2014 4SM BR BKN003
     FM201400 32005KT 6SM HZ BKN012
      TEMPO 2014/2016 BKN007
     FM201700 30005KT P6SM BKN030
     FM202100 VRB03KT P6SM SCT035
     FM210300 15003KT 5SM BR SCT040 SCT070
     FM210900 11003KT 3SM BR SCT040 BKN070 PROB30 2109/2112 -SHRA=

USA.gov is the U.S. government's official web portal to all federal, state and local government web resources and services.